Time;durP1;ratioP1;P1;durP2;ratioP2;P2;SDS_P1;SDS_P2;PMS_P1;PMS_P2;Temp;Humidity;BMP_temperature;BMP_pressure;BME280_temperature;BME280_humidity;BME280_pressure;Samples;Min_cycle;Max_cycle;Signal;HPM_P1;HPM_P2
2023/07/25 00:03:00;;;;;;;16.35;11.75;;;;;;;;;;9980388;28;21073;-69
2023/07/25 00:07:52;;;;;;;20.15;12.52;;;;;;;;;;9979041;28;20531;-69
2023/07/25 00:12:44;;;;;;;19.15;12.27;;;;;;;;;;9972631;28;20089;-69
2023/07/25 00:17:36;;;;;;;20.67;14.10;;;;;;;;;;9962457;28;20055;-69
2023/07/25 00:22:28;;;;;;;14.15;10.52;;;;;;;;;;9971978;28;20570;-68
2023/07/25 00:27:20;;;;;;;17.83;11.57;;;;;;;;;;9957645;28;20124;-67
2023/07/25 00:32:12;;;;;;;16.02;11.88;;;;;;;;;;9957060;28;20043;-69
2023/07/25 00:37:05;;;;;;;14.63;10.77;;;;;;;;;;9962453;28;20054;-68
2023/07/25 00:41:57;;;;;;;18.27;12.13;;;;;;;;;;9971534;28;20101;-67
2023/07/25 00:46:49;;;;;;;14.48;10.77;;;;;;;;;;9972669;28;20049;-68
2023/07/25 00:51:44;;;;;;;15.70;12.02;;;;;;;;;;9964091;28;20046;-69
2023/07/25 00:56:35;;;;;;;18.80;11.60;;;;;;;;;;9987417;28;20051;-69
2023/07/25 01:01:28;;;;;;;15.48;11.73;;;;;;;;;;9978483;28;20035;-68
2023/07/25 01:06:21;;;;;;;16.35;11.15;;;;;;;;;;9976227;28;20042;-68
2023/07/25 01:11:13;;;;;;;23.52;11.48;;;;;;;;;;9976478;28;20090;-68
2023/07/25 01:16:05;;;;;;;13.07;10.75;;;;;;;;;;9978212;28;20038;-68
2023/07/25 01:20:57;;;;;;;15.23;12.10;;;;;;;;;;9977067;28;20046;-68
2023/07/25 01:25:49;;;;;;;12.63;10.02;;;;;;;;;;9978514;28;20520;-68
2023/07/25 01:30:41;;;;;;;19.58;11.00;;;;;;;;;;9978640;28;20743;-67
2023/07/25 01:35:32;;;;;;;13.52;9.77;;;;;;;;;;9971162;28;20041;-67
2023/07/25 01:40:24;;;;;;;15.43;10.90;;;;;;;;;;9978552;28;20042;-68
2023/07/25 01:45:16;;;;;;;12.75;10.38;;;;;;;;;;9953533;28;20081;-67
2023/07/25 01:50:08;;;;;;;16.17;11.23;;;;;;;;;;9980929;28;20047;-67
2023/07/25 01:55:00;;;;;;;16.02;11.07;;;;;;;;;;9978121;28;20134;-69
2023/07/25 01:59:52;;;;;;;15.60;11.32;;;;;;;;;;9984064;28;20047;-67
2023/07/25 02:04:44;;;;;;;14.85;10.77;;;;;;;;;;9965733;28;20046;-67
2023/07/25 02:09:36;;;;;;;16.88;10.38;;;;;;;;;;9982361;28;20092;-67
2023/07/25 02:14:28;;;;;;;18.35;12.00;;;;;;;;;;9987933;28;20050;-67
2023/07/25 02:19:19;;;;;;;21.77;13.10;;;;;;;;;;9965282;28;20468;-67
2023/07/25 02:24:11;;;;;;;17.80;12.35;;;;;;;;;;9977041;28;20035;-67
2023/07/25 02:29:03;;;;;;;20.17;11.98;;;;;;;;;;9971192;28;20420;-67
2023/07/25 02:33:55;;;;;;;17.08;12.88;;;;;;;;;;9954968;28;20078;-68
2023/07/25 02:38:47;;;;;;;18.35;13.45;;;;;;;;;;9973578;28;20050;-68
2023/07/25 02:43:41;;;;;;;18.48;12.55;;;;;;;;;;9975079;28;20038;-69
2023/07/25 02:48:32;;;;;;;18.15;11.80;;;;;;;;;;9982995;28;20093;-68
2023/07/25 02:53:25;;;;;;;21.55;15.05;;;;;;;;;;9980741;28;20050;-67
2023/07/25 02:58:17;;;;;;;21.50;14.98;;;;;;;;;;9986020;28;20125;-68
2023/07/25 03:03:08;;;;;;;17.00;12.68;;;;;;;;;;9987002;28;20043;-69
2023/07/25 03:08:00;;;;;;;26.02;16.00;;;;;;;;;;9986053;28;20042;-68
2023/07/25 03:12:52;;;;;;;22.05;13.63;;;;;;;;;;9974486;28;20088;-67
2023/07/25 03:17:44;;;;;;;17.52;13.38;;;;;;;;;;9985426;28;20050;-69
2023/07/25 03:22:37;;;;;;;17.58;13.93;;;;;;;;;;9985152;28;20074;-68
2023/07/25 03:27:29;;;;;;;22.95;14.32;;;;;;;;;;9985594;28;20034;-69
2023/07/25 03:32:21;;;;;;;22.90;15.73;;;;;;;;;;9984332;28;20408;-69
2023/07/25 03:37:13;;;;;;;20.10;15.23;;;;;;;;;;9985912;28;20101;-67
2023/07/25 03:42:05;;;;;;;19.98;15.18;;;;;;;;;;9986401;28;20038;-67
2023/07/25 03:46:57;;;;;;;22.42;16.75;;;;;;;;;;9986351;28;20453;-68
2023/07/25 03:51:48;;;;;;;19.10;16.40;;;;;;;;;;9984471;28;20181;-68
2023/07/25 03:56:40;;;;;;;23.98;17.73;;;;;;;;;;9985976;28;20058;-67
2023/07/25 04:01:32;;;;;;;21.10;16.70;;;;;;;;;;9985241;28;20086;-68
2023/07/25 04:06:24;;;;;;;26.92;17.98;;;;;;;;;;9985425;28;20105;-67
2023/07/25 04:11:16;;;;;;;19.60;15.23;;;;;;;;;;9983936;28;20381;-68
2023/07/25 04:16:08;;;;;;;20.52;14.38;;;;;;;;;;9984538;28;20043;-68
2023/07/25 04:21:00;;;;;;;20.92;12.95;;;;;;;;;;9990242;28;20042;-67
2023/07/25 04:25:52;;;;;;;15.52;11.50;;;;;;;;;;9992537;28;20104;-68
2023/07/25 04:30:43;;;;;;;16.02;11.82;;;;;;;;;;9992713;28;20171;-67
2023/07/25 04:35:35;;;;;;;15.32;11.60;;;;;;;;;;9994819;28;20081;-68
2023/07/25 04:40:28;;;;;;;21.52;11.38;;;;;;;;;;9991586;28;20380;-68
2023/07/25 04:45:20;;;;;;;13.82;11.10;;;;;;;;;;9992920;28;20046;-68
2023/07/25 04:50:12;;;;;;;17.17;11.85;;;;;;;;;;9992783;28;20081;-68
2023/07/25 04:55:04;;;;;;;21.25;10.80;;;;;;;;;;9991086;28;20061;-68
2023/07/25 04:59:56;;;;;;;15.05;11.05;;;;;;;;;;9992079;28;20051;-69
2023/07/25 05:04:48;;;;;;;11.80;9.73;;;;;;;;;;9991061;28;20052;-67
2023/07/25 05:09:40;;;;;;;15.73;9.70;;;;;;;;;;9992330;28;20039;-69
2023/07/25 05:14:32;;;;;;;14.88;10.85;;;;;;;;;;9989210;28;20472;-68
2023/07/25 05:19:23;;;;;;;16.25;10.82;;;;;;;;;;9983524;28;20357;-67
2023/07/25 05:24:15;;;;;;;15.82;10.90;;;;;;;;;;9988527;28;20038;-69
2023/07/25 05:29:07;;;;;;;15.68;10.48;;;;;;;;;;9990274;28;20425;-69
2023/07/25 05:33:59;;;;;;;14.77;10.82;;;;;;;;;;9988259;28;20093;-69
2023/07/25 05:38:51;;;;;;;12.68;8.38;;;;;;;;;;9987324;28;20050;-67
2023/07/25 05:43:43;;;;;;;15.65;10.02;;;;;;;;;;9987898;28;20054;-67
2023/07/25 05:48:35;;;;;;;16.23;9.55;;;;;;;;;;9987637;28;20491;-70
2023/07/25 05:53:27;;;;;;;12.90;10.30;;;;;;;;;;9985999;28;20038;-69
2023/07/25 05:58:19;;;;;;;12.77;8.93;;;;;;;;;;9987800;28;20173;-69
2023/07/25 06:03:12;;;;;;;15.82;9.95;;;;;;;;;;9988016;28;20072;-69
2023/07/25 06:08:04;;;;;;;13.18;10.05;;;;;;;;;;9987231;28;20112;-69
2023/07/25 06:12:56;;;;;;;11.68;8.10;;;;;;;;;;9986208;28;20117;-69
2023/07/25 06:17:48;;;;;;;18.00;8.43;;;;;;;;;;9984879;28;20114;-69
2023/07/25 06:22:40;;;;;;;16.52;9.48;;;;;;;;;;9963435;28;20520;-68
2023/07/25 06:27:32;;;;;;;16.10;9.98;;;;;;;;;;9975224;28;20089;-70
2023/07/25 06:32:23;;;;;;;14.80;9.15;;;;;;;;;;9958128;28;20046;-69
2023/07/25 06:37:15;;;;;;;15.75;11.55;;;;;;;;;;9983491;28;22053;-70
2023/07/25 06:42:07;;;;;;;17.17;12.18;;;;;;;;;;9984494;28;20092;-70
2023/07/25 06:47:01;;;;;;;17.77;11.80;;;;;;;;;;9974479;28;20137;-70
2023/07/25 06:51:55;;;;;;;17.58;15.02;;;;;;;;;;9976651;28;20414;-69
2023/07/25 06:56:47;;;;;;;18.92;13.80;;;;;;;;;;9974276;28;20058;-70
2023/07/25 07:01:39;;;;;;;22.80;14.10;;;;;;;;;;9984016;28;20149;-69
2023/07/25 07:06:31;;;;;;;29.27;14.48;;;;;;;;;;9983696;28;20108;-68
2023/07/25 07:11:23;;;;;;;21.05;14.35;;;;;;;;;;9983201;28;20112;-68
2023/07/25 07:16:15;;;;;;;16.02;13.38;;;;;;;;;;9983405;28;20129;-66
2023/07/25 07:21:06;;;;;;;23.48;12.25;;;;;;;;;;9984261;28;20420;-68
2023/07/25 07:25:58;;;;;;;20.88;13.57;;;;;;;;;;9984052;28;20074;-69
2023/07/25 07:30:51;;;;;;;15.93;11.50;;;;;;;;;;9984135;28;20437;-69
2023/07/25 07:35:43;;;;;;;24.70;13.63;;;;;;;;;;9978169;28;20042;-67
2023/07/25 07:40:35;;;;;;;20.70;15.48;;;;;;;;;;9961618;28;20050;-68
2023/07/25 07:45:29;;;;;;;15.85;12.30;;;;;;;;;;9982700;28;20050;-69
2023/07/25 07:50:21;;;;;;;15.73;11.70;;;;;;;;;;9946745;28;20047;-75
2023/07/25 07:55:14;;;;;;;14.50;11.00;;;;;;;;;;9973130;28;20089;-71
2023/07/25 08:00:07;;;;;;;18.25;11.25;;;;;;;;;;9984537;28;20527;-75
2023/07/25 08:05:02;;;;;;;16.67;7.60;;;;;;;;;;9982548;28;20058;-72
2023/07/25 08:09:54;;;;;;;11.25;7.28;;;;;;;;;;9982218;28;20042;-75
2023/07/25 08:14:46;;;;;;;6.55;4.70;;;;;;;;;;9972580;28;20472;-71
2023/07/25 08:19:38;;;;;;;4.07;3.33;;;;;;;;;;9966050;28;20053;-73
2023/07/25 08:24:32;;;;;;;4.47;2.85;;;;;;;;;;9980602;28;20559;-74
2023/07/25 08:29:24;;;;;;;3.90;2.55;;;;;;;;;;9978364;28;20046;-73
2023/07/25 08:34:16;;;;;;;7.13;2.72;;;;;;;;;;9979287;28;20054;-74
2023/07/25 08:39:08;;;;;;;6.68;3.58;;;;;;;;;;9973158;28;20046;-75
2023/07/25 08:44:01;;;;;;;5.90;3.42;;;;;;;;;;9954607;28;20593;-76
2023/07/25 08:48:57;;;;;;;7.13;2.90;;;;;;;;;;9952827;28;20303;-74
2023/07/25 08:54:28;;;;;;;4.85;3.20;;;;;;;;;;9969901;28;20042;-74
2023/07/25 08:59:20;;;;;;;5.05;2.17;;;;;;;;;;9977548;28;20046;-72
2023/07/25 09:04:12;;;;;;;4.63;3.03;;;;;;;;;;9969366;28;20106;-74
2023/07/25 09:09:05;;;;;;;4.50;3.22;;;;;;;;;;9968846;28;20416;-73
2023/07/25 09:13:56;;;;;;;5.75;3.45;;;;;;;;;;9970039;28;20480;-76
2023/07/25 09:18:48;;;;;;;7.53;3.15;;;;;;;;;;9966152;28;20114;-76
2023/07/25 09:23:59;;;;;;;6.70;3.47;;;;;;;;;;9968752;28;20465;-69
2023/07/25 09:28:58;;;;;;;4.72;2.85;;;;;;;;;;9977751;28;20337;-69
2023/07/25 09:33:53;;;;;;;8.35;3.85;;;;;;;;;;9986338;28;20061;-67
2023/07/25 09:38:54;;;;;;;4.47;3.38;;;;;;;;;;9985728;28;20047;-64
2023/07/25 09:43:46;;;;;;;14.57;3.70;;;;;;;;;;9986361;28;20066;-68
2023/07/25 09:48:47;;;;;;;10.13;4.18;;;;;;;;;;9970979;28;20417;-68
2023/07/25 09:53:50;;;;;;;4.90;4.07;;;;;;;;;;9966738;28;20480;-66
2023/07/25 09:58:42;;;;;;;9.05;5.13;;;;;;;;;;9961918;28;20381;-67
2023/07/25 10:03:53;;;;;;;7.05;4.60;;;;;;;;;;9974247;28;20532;-68
2023/07/25 10:08:46;;;;;;;5.97;4.85;;;;;;;;;;9971171;28;20130;-68
2023/07/25 10:13:40;;;;;;;9.30;5.82;;;;;;;;;;9972137;28;20034;-69
2023/07/25 10:18:33;;;;;;;10.50;4.78;;;;;;;;;;9966659;28;20489;-67
2023/07/25 10:23:30;;;;;;;10.35;5.30;;;;;;;;;;9966575;28;20046;-68
2023/07/25 10:28:22;;;;;;;12.52;6.88;;;;;;;;;;9972056;28;20043;-68
2023/07/25 10:33:16;;;;;;;7.13;6.18;;;;;;;;;;9973433;28;20061;-69
2023/07/25 10:38:09;;;;;;;7.00;5.53;;;;;;;;;;9985841;28;20057;-68
2023/07/25 10:43:01;;;;;;;10.48;5.60;;;;;;;;;;9974305;28;20061;-69
2023/07/25 10:48:02;;;;;;;9.50;6.50;;;;;;;;;;9968051;28;20056;-69
2023/07/25 10:52:54;;;;;;;13.98;6.80;;;;;;;;;;9967538;28;20108;-69
2023/07/25 10:58:08;;;;;;;9.85;6.45;;;;;;;;;;9968981;28;20062;-70
2023/07/25 11:03:00;;;;;;;9.07;6.00;;;;;;;;;;9962982;28;20422;-67
2023/07/25 11:07:53;;;;;;;13.95;6.45;;;;;;;;;;9967156;28;20047;-69
2023/07/25 11:12:54;;;;;;;8.43;7.15;;;;;;;;;;9977709;28;20120;-69
2023/07/25 11:17:47;;;;;;;12.82;8.20;;;;;;;;;;9960627;28;20046;-69
2023/07/25 11:22:40;;;;;;;14.95;8.93;;;;;;;;;;9967429;28;20872;-69
2023/07/25 11:27:32;;;;;;;10.75;7.93;;;;;;;;;;9949388;28;20046;-69
2023/07/25 11:32:28;;;;;;;10.20;7.60;;;;;;;;;;9961541;28;20089;-69
2023/07/25 11:37:20;;;;;;;11.02;6.85;;;;;;;;;;9967616;28;20139;-69
2023/07/25 11:42:13;;;;;;;10.98;6.95;;;;;;;;;;9961148;28;20193;-68
2023/07/25 11:47:05;;;;;;;9.88;6.22;;;;;;;;;;9978222;28;20042;-71
2023/07/25 11:51:57;;;;;;;12.25;6.05;;;;;;;;;;9958168;28;20070;-71
2023/07/25 11:56:49;;;;;;;9.75;6.20;;;;;;;;;;9963385;28;20443;-71
2023/07/25 12:01:41;;;;;;;15.73;7.03;;;;;;;;;;9976210;28;20050;-71
2023/07/25 12:06:33;;;;;;;7.70;5.38;;;;;;;;;;9969656;28;20101;-71
2023/07/25 12:11:26;;;;;;;11.07;6.38;;;;;;;;;;9966945;28;20053;-73
2023/07/25 12:16:34;;;;;;;8.27;6.50;;;;;;;;;;9984826;28;20062;-74
2023/07/25 12:21:30;;;;;;;10.85;5.97;;;;;;;;;;9988413;28;20049;-72
2023/07/25 12:26:22;;;;;;;7.35;6.30;;;;;;;;;;9988201;28;20046;-72
2023/07/25 12:31:14;;;;;;;11.05;6.50;;;;;;;;;;9986883;28;20051;-74
2023/07/25 12:36:06;;;;;;;9.15;5.57;;;;;;;;;;9991358;28;20050;-71
2023/07/25 12:41:05;;;;;;;8.23;5.78;;;;;;;;;;10027731;28;20096;-71
2023/07/25 12:46:40;;;;;;;8.57;5.20;;;;;;;;;;10009027;28;20057;-71
2023/07/25 12:51:32;;;;;;;9.70;6.50;;;;;;;;;;10029796;28;20046;-70
2023/07/25 12:56:25;;;;;;;13.55;5.22;;;;;;;;;;9992694;28;20069;-71
2023/07/25 13:01:17;;;;;;;5.65;5.10;;;;;;;;;;9990559;28;20050;-72
2023/07/25 13:06:09;;;;;;;8.93;6.22;;;;;;;;;;9988039;28;20046;-70
2023/07/25 13:11:02;;;;;;;7.18;4.95;;;;;;;;;;9988300;28;20488;-70
2023/07/25 13:15:54;;;;;;;7.10;4.70;;;;;;;;;;9986892;28;20307;-70
2023/07/25 13:20:46;;;;;;;6.60;4.53;;;;;;;;;;9988007;28;20054;-70
2023/07/25 13:25:44;;;;;;;5.78;4.80;;;;;;;;;;9988374;28;20050;-70
2023/07/25 13:30:36;;;;;;;3.78;2.85;;;;;;;;;;9986275;28;20077;-70
2023/07/25 13:35:28;;;;;;;4.97;2.58;;;;;;;;;;9988847;28;20053;-70
2023/07/25 13:40:20;;;;;;;4.32;2.95;;;;;;;;;;9987478;28;20448;-69
2023/07/25 13:45:12;;;;;;;5.20;2.88;;;;;;;;;;9982093;28;20050;-70
2023/07/25 13:50:04;;;;;;;4.55;3.08;;;;;;;;;;9986191;28;20484;-70
2023/07/25 13:54:56;;;;;;;5.60;2.88;;;;;;;;;;9987842;28;20085;-70
2023/07/25 13:59:48;;;;;;;5.35;3.17;;;;;;;;;;9986882;28;20054;-69
2023/07/25 14:04:40;;;;;;;3.03;2.42;;;;;;;;;;9985879;28;20089;-68
2023/07/25 14:09:32;;;;;;;6.65;3.38;;;;;;;;;;9996360;28;20140;-68
2023/07/25 14:14:24;;;;;;;4.43;3.22;;;;;;;;;;9997359;28;20126;-69
2023/07/25 14:19:16;;;;;;;4.72;3.08;;;;;;;;;;9985532;28;20046;-69
2023/07/25 14:24:08;;;;;;;5.30;3.08;;;;;;;;;;9985159;28;20042;-69
2023/07/25 14:29:04;;;;;;;7.70;3.00;;;;;;;;;;9986435;28;20050;-69
2023/07/25 14:33:59;;;;;;;8.27;2.53;;;;;;;;;;9986039;28;20050;-69
2023/07/25 14:38:51;;;;;;;4.78;3.10;;;;;;;;;;9986000;28;20054;-69
2023/07/25 14:43:43;;;;;;;3.60;2.80;;;;;;;;;;9984493;28;20050;-69
2023/07/25 14:48:35;;;;;;;4.40;3.03;;;;;;;;;;9984230;28;20043;-70
2023/07/25 14:53:27;;;;;;;4.72;2.83;;;;;;;;;;9985114;28;20049;-69
2023/07/25 14:58:19;;;;;;;6.85;2.88;;;;;;;;;;9984297;28;20138;-69
2023/07/25 15:03:11;;;;;;;6.10;2.28;;;;;;;;;;9983967;28;20043;-69
2023/07/25 15:08:03;;;;;;;4.32;2.70;;;;;;;;;;9984025;28;20045;-69
2023/07/25 15:12:58;;;;;;;3.50;2.45;;;;;;;;;;9982676;28;20571;-69
2023/07/25 15:17:50;;;;;;;4.25;2.90;;;;;;;;;;9983381;28;20068;-69
2023/07/25 15:22:43;;;;;;;5.00;2.70;;;;;;;;;;9983684;28;20105;-66
2023/07/25 15:27:35;;;;;;;4.68;1.70;;;;;;;;;;9982503;28;20405;-69
2023/07/25 15:32:27;;;;;;;7.32;2.20;;;;;;;;;;9982732;28;20046;-68
2023/07/25 15:37:19;;;;;;;3.35;1.83;;;;;;;;;;9982774;28;20238;-69
2023/07/25 15:42:11;;;;;;;7.05;1.88;;;;;;;;;;9983557;28;20050;-69
2023/07/25 15:47:03;;;;;;;6.10;2.78;;;;;;;;;;9984135;28;20138;-69
2023/07/25 15:51:56;;;;;;;2.97;1.92;;;;;;;;;;9984977;28;20050;-69
2023/07/25 15:56:48;;;;;;;4.43;2.13;;;;;;;;;;9982297;28;20047;-69
2023/07/25 16:01:41;;;;;;;5.53;1.73;;;;;;;;;;9982530;28;20042;-69
2023/07/25 16:06:33;;;;;;;8.63;2.25;;;;;;;;;;9985676;28;20075;-69
2023/07/25 16:11:25;;;;;;;4.57;1.80;;;;;;;;;;9980181;28;20156;-79
2023/07/25 16:16:17;;;;;;;4.68;2.25;;;;;;;;;;9958443;28;20046;-70
2023/07/25 16:21:09;;;;;;;2.95;1.80;;;;;;;;;;9983489;28;20438;-69
2023/07/25 16:26:01;;;;;;;6.32;2.63;;;;;;;;;;9985276;28;20039;-74
2023/07/25 16:30:55;;;;;;;3.65;2.05;;;;;;;;;;9958915;28;20058;-73
2023/07/25 16:36:07;;;;;;;9.68;2.42;;;;;;;;;;9974345;28;20042;-76
2023/07/25 16:41:00;;;;;;;6.75;2.38;;;;;;;;;;9981005;28;20044;-73
2023/07/25 16:45:52;;;;;;;5.35;1.88;;;;;;;;;;9977154;28;20048;-67
2023/07/25 16:50:44;;;;;;;3.95;1.95;;;;;;;;;;9975045;28;20102;-67
2023/07/25 16:55:36;;;;;;;3.70;2.35;;;;;;;;;;9968075;28;20058;-66
2023/07/25 17:00:28;;;;;;;4.47;2.10;;;;;;;;;;9958026;28;20039;-67
2023/07/25 17:05:20;;;;;;;24.88;4.80;;;;;;;;;;9986495;28;20046;-67
2023/07/25 17:10:12;;;;;;;4.45;1.88;;;;;;;;;;9990526;28;20093;-66
2023/07/25 17:15:04;;;;;;;7.75;2.88;;;;;;;;;;9989265;28;20054;-66
2023/07/25 17:19:57;;;;;;;5.88;2.42;;;;;;;;;;9985260;28;20043;-66
2023/07/25 17:24:48;;;;;;;11.95;3.22;;;;;;;;;;9990486;28;20454;-65
2023/07/25 17:29:40;;;;;;;8.27;3.35;;;;;;;;;;9990412;28;20487;-66
2023/07/25 17:34:32;;;;;;;6.63;2.83;;;;;;;;;;9989545;28;20047;-66
2023/07/25 17:39:24;;;;;;;7.05;2.80;;;;;;;;;;9989032;28;20373;-67
2023/07/25 17:44:17;;;;;;;7.70;2.88;;;;;;;;;;9989381;28;20057;-66
2023/07/25 17:49:09;;;;;;;7.35;2.63;;;;;;;;;;9989620;28;20388;-66
2023/07/25 17:54:00;;;;;;;7.13;3.10;;;;;;;;;;9989467;28;20057;-68
2023/07/25 17:58:52;;;;;;;6.60;3.40;;;;;;;;;;9989338;28;20047;-67
2023/07/25 18:03:44;;;;;;;7.05;3.58;;;;;;;;;;9977804;28;20377;-67
2023/07/25 18:08:36;;;;;;;4.22;2.40;;;;;;;;;;9959467;28;20046;-67
2023/07/25 18:13:28;;;;;;;8.27;3.85;;;;;;;;;;10008042;28;20086;-67
2023/07/25 18:18:21;;;;;;;10.80;4.00;;;;;;;;;;9988201;28;20057;-67
2023/07/25 18:23:13;;;;;;;9.55;3.10;;;;;;;;;;9989950;28;20109;-67
2023/07/25 18:28:05;;;;;;;7.85;3.15;;;;;;;;;;9987789;28;20038;-66
2023/07/25 18:32:57;;;;;;;9.60;3.15;;;;;;;;;;9988472;28;20416;-67
2023/07/25 18:37:49;;;;;;;4.90;3.13;;;;;;;;;;9976690;28;20042;-67
2023/07/25 18:42:40;;;;;;;10.30;3.55;;;;;;;;;;9982029;28;20050;-66
2023/07/25 18:47:32;;;;;;;9.55;3.53;;;;;;;;;;10010783;28;20042;-67
2023/07/25 18:52:26;;;;;;;9.10;3.63;;;;;;;;;;10000312;28;20046;-67
2023/07/25 18:57:20;;;;;;;10.18;3.22;;;;;;;;;;9995059;28;20068;-67
2023/07/25 19:02:12;;;;;;;8.85;3.70;;;;;;;;;;10006406;28;20318;-66
2023/07/25 19:07:04;;;;;;;8.13;2.67;;;;;;;;;;9977693;28;20459;-66
2023/07/25 19:11:57;;;;;;;11.55;3.55;;;;;;;;;;10015579;28;20068;-66
2023/07/25 19:16:50;;;;;;;11.88;3.72;;;;;;;;;;10004973;28;20107;-65
2023/07/25 19:21:42;;;;;;;7.25;2.83;;;;;;;;;;10005140;28;20088;-66
2023/07/25 19:26:35;;;;;;;9.40;3.33;;;;;;;;;;10020470;28;20125;-66
2023/07/25 19:31:27;;;;;;;9.65;3.58;;;;;;;;;;10008171;28;20464;-66
2023/07/25 19:36:19;;;;;;;7.68;3.53;;;;;;;;;;9988251;28;20134;-65
2023/07/25 19:41:15;;;;;;;8.07;3.53;;;;;;;;;;9983727;28;20056;-64
2023/07/25 19:46:08;;;;;;;5.97;2.80;;;;;;;;;;9997221;28;20045;-63
2023/07/25 19:51:13;;;;;;;6.72;2.92;;;;;;;;;;9988395;28;20071;-65
2023/07/25 19:56:06;;;;;;;9.90;4.22;;;;;;;;;;10025182;28;20099;-67
2023/07/25 20:01:06;;;;;;;7.07;2.92;;;;;;;;;;10023987;28;20107;-69
2023/07/25 20:05:58;;;;;;;10.63;3.17;;;;;;;;;;10023344;28;20038;-68
2023/07/25 20:10:50;;;;;;;12.65;3.25;;;;;;;;;;10000422;28;20054;-68
2023/07/25 20:15:42;;;;;;;7.45;2.67;;;;;;;;;;10024403;28;20682;-64
2023/07/25 20:20:34;;;;;;;8.80;4.00;;;;;;;;;;10024589;28;20446;-67
2023/07/25 20:25:26;;;;;;;9.02;3.40;;;;;;;;;;10026328;28;20080;-66
2023/07/25 20:30:17;;;;;;;9.27;3.63;;;;;;;;;;10025957;28;20049;-66
2023/07/25 20:35:10;;;;;;;7.57;3.05;;;;;;;;;;10006153;28;20046;-65
2023/07/25 20:40:03;;;;;;;12.60;5.35;;;;;;;;;;9987329;28;20046;-66
2023/07/25 20:44:58;;;;;;;9.82;3.70;;;;;;;;;;10013886;28;20120;-65
2023/07/25 20:49:50;;;;;;;8.98;3.63;;;;;;;;;;10025418;28;20054;-71
2023/07/25 20:54:42;;;;;;;12.60;3.58;;;;;;;;;;10026111;28;20348;-71
2023/07/25 20:59:34;;;;;;;7.60;2.90;;;;;;;;;;10027097;28;20072;-71
2023/07/25 21:04:26;;;;;;;14.25;3.53;;;;;;;;;;10032702;28;20137;-71
2023/07/25 21:09:19;;;;;;;9.48;3.92;;;;;;;;;;10033032;28;20045;-71
2023/07/25 21:14:11;;;;;;;14.07;3.33;;;;;;;;;;10033066;28;20136;-71
2023/07/25 21:19:03;;;;;;;10.85;2.90;;;;;;;;;;10020277;28;20469;-72
2023/07/25 21:23:55;;;;;;;11.75;3.53;;;;;;;;;;10032912;28;20534;-71
2023/07/25 21:28:47;;;;;;;11.07;3.13;;;;;;;;;;10002249;28;20465;-71
2023/07/25 21:33:39;;;;;;;12.18;3.78;;;;;;;;;;9980874;28;20424;-72
2023/07/25 21:38:31;;;;;;;9.70;4.47;;;;;;;;;;10008537;28;20128;-71
2023/07/25 21:43:23;;;;;;;11.50;4.18;;;;;;;;;;10032211;28;20046;-72
2023/07/25 21:48:15;;;;;;;8.63;3.47;;;;;;;;;;10006457;28;20054;-72
2023/07/25 21:53:07;;;;;;;14.32;4.65;;;;;;;;;;10032248;28;20054;-72
2023/07/25 21:57:59;;;;;;;15.80;3.83;;;;;;;;;;10031359;28;20046;-69
2023/07/25 22:02:50;;;;;;;15.80;4.95;;;;;;;;;;10031702;28;20100;-72
2023/07/25 22:07:42;;;;;;;9.82;3.22;;;;;;;;;;10031300;28;20057;-71
2023/07/25 22:12:34;;;;;;;9.93;4.22;;;;;;;;;;10030781;28;20050;-70
2023/07/25 22:17:26;;;;;;;10.85;3.45;;;;;;;;;;10017988;28;20377;-71
2023/07/25 22:22:18;;;;;;;16.88;4.82;;;;;;;;;;9977397;28;20053;-71
2023/07/25 22:27:10;;;;;;;11.43;3.63;;;;;;;;;;9970896;28;20058;-70
2023/07/25 22:32:02;;;;;;;6.70;3.58;;;;;;;;;;9971872;28;20710;-71
2023/07/25 22:36:54;;;;;;;15.13;3.65;;;;;;;;;;9993078;28;20043;-70
2023/07/25 22:41:49;;;;;;;13.23;3.95;;;;;;;;;;9995225;28;20039;-71
2023/07/25 22:46:42;;;;;;;12.85;3.15;;;;;;;;;;9963183;28;20053;-70
2023/07/25 22:51:34;;;;;;;8.65;3.20;;;;;;;;;;9969234;28;20059;-70
2023/07/25 22:56:26;;;;;;;8.00;2.88;;;;;;;;;;9984125;28;20054;-71
2023/07/25 23:01:19;;;;;;;20.73;4.40;;;;;;;;;;9985640;28;20523;-70
2023/07/25 23:06:11;;;;;;;11.07;3.67;;;;;;;;;;9973050;28;20133;-71
2023/07/25 23:11:03;;;;;;;8.95;3.10;;;;;;;;;;9974290;28;20088;-71
2023/07/25 23:15:55;;;;;;;14.45;4.07;;;;;;;;;;9981983;28;20056;-69
2023/07/25 23:20:47;;;;;;;8.43;3.70;;;;;;;;;;9981184;28;20042;-72
2023/07/25 23:25:44;;;;;;;7.95;3.33;;;;;;;;;;9977164;28;20097;-70
2023/07/25 23:30:36;;;;;;;8.10;2.97;;;;;;;;;;9970987;28;20050;-73
2023/07/25 23:35:28;;;;;;;13.80;3.55;;;;;;;;;;9974075;28;20496;-72
2023/07/25 23:40:20;;;;;;;8.25;3.70;;;;;;;;;;9973097;28;20046;-71
2023/07/25 23:45:12;;;;;;;8.98;3.92;;;;;;;;;;9976215;28;20141;-71
2023/07/25 23:50:05;;;;;;;9.20;4.90;;;;;;;;;;9978088;28;20046;-71
2023/07/25 23:54:57;;;;;;;10.88;4.10;;;;;;;;;;9982416;28;20437;-72
2023/07/25 23:59:49;;;;;;;8.73;4.47;;;;;;;;;;9971036;28;20065;-71
